createdAt,value
2023-04-12T00:03:20.835Z,7.96
2023-04-12T00:07:25.570Z,7.98
2023-04-12T00:11:31.740Z,8.01
2023-04-12T00:15:36.661Z,8.04
2023-04-12T00:19:42.318Z,8.04
2023-04-12T00:23:46.490Z,8.04
2023-04-12T00:27:49.668Z,8.02
2023-04-12T00:31:55.102Z,8.02
2023-04-12T00:35:58.356Z,7.93
2023-04-12T00:40:02.126Z,7.94
2023-04-12T00:44:05.924Z,7.90
2023-04-12T00:48:10.832Z,7.87
2023-04-12T00:52:15.732Z,7.79
2023-04-12T00:56:20.242Z,7.70
2023-04-12T01:00:23.693Z,7.57
2023-04-12T01:04:29.564Z,7.44
2023-04-12T01:08:43.813Z,7.32
2023-04-12T01:12:56.329Z,7.22
2023-04-12T01:17:05.582Z,7.09
2023-04-12T01:21:15.900Z,6.92
2023-04-12T01:25:34.691Z,6.86
2023-04-12T01:29:40.242Z,6.73
2023-04-12T01:33:46.699Z,6.63
2023-04-12T01:37:51.194Z,6.50
2023-04-12T01:41:54.585Z,6.44
2023-04-12T01:45:59.380Z,6.40
2023-04-12T01:50:13.245Z,6.36
2023-04-12T01:54:22.649Z,6.35
2023-04-12T01:58:27.359Z,6.34
2023-04-12T02:02:32.498Z,6.37
2023-04-12T02:06:36.595Z,6.39
2023-04-12T02:10:40.479Z,6.43
2023-04-12T02:14:44.198Z,6.42
2023-04-12T02:18:49.246Z,6.37
2023-04-12T02:22:54.064Z,6.29
2023-04-12T02:26:57.253Z,6.19
2023-04-12T02:31:00.760Z,6.13
2023-04-12T02:35:08.976Z,6.07
2023-04-12T02:39:12.214Z,6.00
2023-04-12T02:43:15.646Z,6.01
2023-04-12T02:47:19.270Z,6.00
2023-04-12T02:51:24.521Z,6.04
2023-04-12T02:55:27.912Z,6.04
2023-04-12T02:59:31.115Z,6.08
2023-04-12T03:03:35.005Z,6.07
2023-04-12T03:07:40.203Z,6.08
2023-04-12T03:11:43.815Z,6.10
2023-04-12T03:15:49.988Z,6.05
2023-04-12T03:19:53.519Z,6.00
2023-04-12T03:23:58.681Z,5.95
2023-04-12T03:28:02.605Z,5.90
2023-04-12T03:32:06.262Z,5.88
2023-04-12T03:36:11.435Z,5.85
2023-04-12T03:40:21.601Z,5.82
2023-04-12T03:44:26.606Z,5.79
2023-04-12T03:48:30.157Z,5.75
2023-04-12T03:52:34.052Z,5.69
2023-04-12T03:56:39.326Z,5.63
2023-04-12T04:00:43.656Z,5.56
2023-04-12T04:04:47.060Z,5.51
2023-04-12T04:08:50.629Z,5.48
2023-04-12T04:12:55.486Z,5.45
2023-04-12T04:16:59.089Z,5.45
2023-04-12T04:21:02.118Z,5.44
2023-04-12T04:25:06.473Z,5.43
2023-04-12T04:29:12.202Z,5.44
2023-04-12T04:33:16.399Z,5.42
2023-04-12T04:37:21.778Z,5.43
2023-04-12T04:41:25.317Z,5.38
2023-04-12T04:45:30.911Z,5.42
2023-04-12T04:49:34.745Z,5.32
2023-04-12T04:53:38.517Z,5.44
2023-04-12T04:57:42.381Z,5.46
2023-04-12T05:01:47.271Z,5.46
2023-04-12T05:05:51.128Z,5.45
2023-04-12T05:09:54.406Z,5.48
2023-04-12T05:13:57.874Z,5.57
2023-04-12T05:18:03.591Z,5.66
2023-04-12T05:22:06.835Z,5.78
2023-04-12T05:26:10.006Z,5.97
2023-04-12T05:30:14.229Z,6.22
2023-04-12T05:34:18.964Z,6.52
2023-04-12T05:38:22.121Z,6.81
2023-04-12T05:42:25.465Z,7.06
2023-04-12T05:46:29.227Z,7.28
2023-04-12T05:50:34.241Z,7.48
2023-04-12T05:54:37.745Z,7.63
2023-04-12T05:58:40.839Z,7.77
2023-04-12T06:02:44.645Z,7.90
2023-04-12T06:06:49.896Z,8.03
2023-04-12T06:10:53.212Z,8.14
2023-04-12T06:14:56.868Z,8.29
2023-04-12T06:19:00.817Z,8.45
2023-04-12T06:23:06.816Z,8.64
2023-04-12T06:27:10.716Z,8.82
2023-04-12T06:31:14.156Z,9.01
2023-04-12T06:35:17.584Z,9.22
2023-04-12T06:39:22.800Z,9.46
2023-04-12T06:43:26.514Z,9.69
2023-04-12T06:47:29.627Z,9.93
2023-04-12T06:51:33.061Z,10.22
2023-04-12T06:55:37.881Z,10.53
2023-04-12T06:59:41.940Z,10.80
2023-04-12T07:03:45.148Z,11.08
2023-04-12T07:07:48.579Z,11.34
2023-04-12T07:11:53.421Z,11.63
2023-04-12T07:15:57.371Z,11.94
2023-04-12T07:20:01.176Z,12.23
2023-04-12T07:24:04.827Z,12.53
2023-04-12T07:28:09.616Z,12.79
2023-04-12T07:32:13.447Z,13.07
2023-04-12T07:36:17.609Z,13.39
2023-04-12T07:40:21.400Z,13.68
2023-04-12T07:44:26.163Z,13.90
2023-04-12T07:48:29.916Z,14.18
2023-04-12T07:52:34.208Z,14.39
2023-04-12T07:56:37.839Z,14.56
2023-04-12T08:00:42.389Z,14.65
2023-04-12T08:04:46.245Z,14.73
2023-04-12T08:08:49.306Z,14.85
2023-04-12T08:12:52.712Z,15.09
2023-04-12T08:16:57.257Z,15.42
2023-04-12T08:21:00.811Z,15.73
2023-04-12T08:25:03.960Z,16.02
2023-04-12T08:29:07.409Z,16.30
2023-04-12T08:33:12.307Z,16.57
2023-04-12T08:37:15.716Z,16.79
2023-04-12T08:41:19.055Z,16.93
2023-04-12T08:45:24.518Z,17.12
2023-04-12T08:49:29.150Z,17.39
2023-04-12T08:53:32.512Z,17.65
2023-04-12T08:57:37.459Z,17.93
2023-04-12T09:01:43.575Z,18.20
2023-04-12T09:05:48.562Z,18.42
2023-04-12T09:09:52.644Z,18.59
2023-04-12T09:13:56.904Z,18.86
2023-04-12T09:18:09.205Z,19.15
2023-04-12T09:22:14.056Z,19.41
2023-04-12T09:26:29.475Z,19.54
2023-04-12T09:30:42.932Z,19.62
2023-04-12T09:34:57.681Z,19.72
2023-04-12T09:39:03.271Z,19.78
2023-04-12T09:43:08.169Z,19.75
2023-04-12T09:47:11.330Z,19.71
2023-04-12T09:51:14.727Z,19.69
2023-04-12T09:55:19.436Z,19.76
2023-04-12T09:59:24.359Z,19.82
2023-04-12T10:03:28.047Z,19.95
2023-04-12T10:07:31.565Z,20.08
2023-04-12T10:11:36.594Z,20.22
2023-04-12T10:15:41.188Z,20.30
2023-04-12T10:19:45.456Z,20.32
2023-04-12T10:23:49.343Z,20.36
2023-04-12T10:27:54.647Z,20.42
2023-04-12T10:31:59.566Z,20.51
2023-04-12T10:36:08.618Z,20.69
2023-04-12T10:40:19.668Z,20.95
2023-04-12T10:44:27.539Z,21.20
2023-04-12T10:48:32.373Z,21.39
2023-04-12T10:52:39.260Z,21.61
2023-04-12T10:56:43.604Z,21.87
2023-04-12T11:01:13.415Z,22.15
2023-04-12T11:05:19.658Z,22.43
2023-04-12T11:09:25.494Z,22.72
2023-04-12T11:13:30.178Z,23.07
2023-04-12T11:17:36.942Z,23.40
2023-04-12T11:21:41.380Z,23.63
2023-04-12T11:25:45.758Z,23.75
2023-04-12T11:29:53.119Z,23.81
2023-04-12T11:34:01.263Z,23.71
2023-04-12T11:38:05.688Z,23.53
2023-04-12T11:42:13.536Z,23.37
2023-04-12T11:46:18.801Z,23.17
2023-04-12T11:50:32.649Z,23.00
2023-04-12T11:54:36.362Z,22.84
2023-04-12T11:58:39.591Z,22.66
2023-04-12T12:02:52.202Z,22.53
2023-04-12T12:07:01.843Z,22.45
2023-04-12T12:11:08.320Z,22.25
2023-04-12T12:15:12.435Z,21.96
2023-04-12T12:19:15.915Z,21.68
2023-04-12T12:23:39.083Z,21.53
2023-04-12T12:27:45.159Z,21.33
2023-04-12T12:31:49.591Z,21.23
2023-04-12T12:35:58.014Z,21.23
2023-04-12T12:40:07.399Z,21.35
2023-04-12T12:44:11.737Z,21.27
2023-04-12T12:48:15.248Z,21.14
2023-04-12T12:52:20.953Z,20.95
2023-04-12T12:56:25.491Z,20.70
2023-04-12T13:00:30.528Z,20.44
2023-04-12T13:04:34.124Z,20.31
2023-04-12T13:08:37.645Z,20.23
2023-04-12T13:12:42.168Z,20.34
2023-04-12T13:16:46.543Z,20.52
2023-04-12T13:20:52.683Z,20.83
2023-04-12T13:24:56.906Z,21.10
2023-04-12T13:29:01.726Z,21.36
2023-04-12T13:33:05.352Z,21.50
2023-04-12T13:37:08.994Z,21.55
2023-04-12T13:41:12.779Z,21.45
2023-04-12T13:45:17.479Z,21.21
2023-04-12T13:49:21.539Z,20.97
2023-04-12T13:53:24.963Z,20.69
2023-04-12T13:57:29.296Z,20.49
2023-04-12T14:01:33.883Z,20.39
2023-04-12T14:05:37.607Z,20.34
2023-04-12T14:09:40.513Z,20.39
2023-04-12T14:13:44.306Z,20.53
2023-04-12T14:17:49.199Z,20.75
2023-04-12T14:21:52.728Z,21.00
2023-04-12T14:25:55.893Z,21.26
2023-04-12T14:29:59.236Z,21.52
2023-04-12T14:34:03.727Z,21.78
2023-04-12T14:38:09.414Z,21.98
2023-04-12T14:42:13.435Z,22.15
2023-04-12T14:46:18.168Z,22.21
2023-04-12T14:50:23.147Z,22.11
2023-04-12T14:54:26.470Z,21.96
2023-04-12T14:58:30.764Z,21.77
2023-04-12T15:02:34.354Z,21.49
2023-04-12T15:06:42.575Z,21.20
2023-04-12T15:10:46.137Z,20.97
2023-04-12T15:14:52.307Z,20.79
2023-04-12T15:18:56.846Z,20.72
2023-04-12T15:23:02.408Z,20.69
2023-04-12T15:27:07.112Z,20.69
2023-04-12T15:31:12.263Z,20.72
2023-04-12T15:35:25.833Z,20.78
2023-04-12T15:39:30.972Z,20.88
2023-04-12T15:43:36.044Z,20.88
2023-04-12T15:47:39.907Z,20.83
2023-04-12T15:51:43.406Z,20.75
2023-04-12T15:55:48.632Z,20.64
2023-04-12T15:59:52.974Z,20.46
2023-04-12T16:03:55.994Z,20.23
2023-04-12T16:07:59.251Z,19.96
2023-04-12T16:12:03.686Z,19.66
2023-04-12T16:16:08.242Z,19.33
2023-04-12T16:20:16.883Z,19.04
2023-04-12T16:24:20.660Z,18.84
2023-04-12T16:28:25.382Z,18.73
2023-04-12T16:32:28.482Z,18.64
2023-04-12T16:36:31.477Z,18.56
2023-04-12T16:40:34.533Z,18.46
2023-04-12T16:44:38.866Z,18.31
2023-04-12T16:48:43.159Z,18.15
2023-04-12T16:52:46.148Z,17.97
2023-04-12T16:56:50.139Z,17.80
2023-04-12T17:00:54.599Z,17.63
2023-04-12T17:04:58.624Z,17.50
2023-04-12T17:09:02.042Z,17.37
2023-04-12T17:13:05.681Z,17.25
2023-04-12T17:17:10.850Z,17.14
2023-04-12T17:21:17.433Z,17.00
2023-04-12T17:25:22.372Z,16.83
2023-04-12T17:29:29.249Z,16.64
2023-04-12T17:33:33.669Z,16.48
2023-04-12T17:37:37.609Z,16.30
2023-04-12T17:41:41.567Z,16.12
2023-04-12T17:45:44.823Z,15.95
2023-04-12T17:49:50.446Z,15.81
2023-04-12T17:53:55.643Z,15.67
2023-04-12T17:57:59.018Z,15.53
2023-04-12T18:02:03.170Z,15.39
2023-04-12T18:06:08.050Z,15.25
2023-04-12T18:10:13.082Z,15.10
2023-04-12T18:14:16.096Z,14.98
2023-04-12T18:18:22.342Z,14.86
2023-04-12T18:22:27.932Z,14.77
2023-04-12T18:26:32.317Z,14.67
2023-04-12T18:30:36.040Z,14.58
2023-04-12T18:34:39.681Z,14.51
2023-04-12T18:38:44.352Z,14.43
2023-04-12T18:42:47.317Z,14.39
2023-04-12T18:46:50.681Z,14.34
2023-04-12T18:50:53.928Z,14.33
2023-04-12T18:54:58.382Z,14.32
2023-04-12T18:59:01.914Z,14.31
2023-04-12T19:03:06.350Z,14.30
2023-04-12T19:07:10.170Z,14.29
2023-04-12T19:11:15.587Z,14.28
2023-04-12T19:15:21.173Z,14.23
2023-04-12T19:19:24.208Z,14.16
2023-04-12T19:23:28.167Z,14.09
2023-04-12T19:27:33.203Z,14.04
2023-04-12T19:31:36.840Z,13.97
2023-04-12T19:35:39.817Z,13.89
2023-04-12T19:39:46.289Z,13.83
2023-04-12T19:43:51.582Z,13.79
2023-04-12T19:47:55.640Z,13.74
2023-04-12T19:52:00.786Z,13.69
2023-04-12T19:56:07.010Z,13.63
2023-04-12T20:00:16.404Z,13.57
2023-04-12T20:04:21.650Z,13.49
2023-04-12T20:08:24.915Z,13.45
2023-04-12T20:12:28.286Z,13.42
2023-04-12T20:16:33.651Z,13.43
2023-04-12T20:20:36.953Z,13.45
2023-04-12T20:24:40.334Z,13.48
2023-04-12T20:28:43.606Z,13.51
2023-04-12T20:32:48.926Z,13.51
2023-04-12T20:36:55.489Z,13.48
2023-04-12T20:40:59.337Z,13.43
2023-04-12T20:45:02.606Z,13.37
2023-04-12T20:49:07.470Z,13.33
2023-04-12T20:53:15.780Z,13.30
2023-04-12T20:57:20.099Z,13.32
2023-04-12T21:01:24.424Z,13.35
2023-04-12T21:05:30.174Z,13.37
2023-04-12T21:09:33.562Z,13.38
2023-04-12T21:13:37.115Z,13.40
2023-04-12T21:17:42.875Z,13.39
2023-04-12T21:21:48.325Z,13.36
2023-04-12T21:25:52.256Z,13.30
2023-04-12T21:29:55.367Z,13.26
2023-04-12T21:34:00.003Z,13.20
2023-04-12T21:38:04.594Z,13.14
2023-04-12T21:42:08.383Z,13.12
2023-04-12T21:46:12.490Z,13.10
2023-04-12T21:50:16.028Z,13.09
2023-04-12T21:54:20.994Z,13.07
2023-04-12T21:58:24.446Z,13.07
2023-04-12T22:02:28.556Z,13.06
2023-04-12T22:06:32.849Z,13.06
2023-04-12T22:10:37.351Z,13.08
2023-04-12T22:14:47.222Z,13.07
2023-04-12T22:18:51.067Z,13.07
2023-04-12T22:22:54.870Z,13.06
2023-04-12T22:26:59.596Z,13.08
2023-04-12T22:31:02.982Z,13.08
2023-04-12T22:35:08.802Z,13.08
2023-04-12T22:39:15.875Z,13.08
2023-04-12T22:43:21.359Z,13.10
2023-04-12T22:47:25.706Z,13.11
2023-04-12T22:51:29.065Z,13.07
2023-04-12T22:55:33.443Z,13.03
2023-04-12T22:59:37.789Z,13.00
2023-04-12T23:03:41.983Z,12.95
2023-04-12T23:07:45.077Z,12.91
2023-04-12T23:11:48.912Z,12.90
2023-04-12T23:15:53.227Z,12.86
2023-04-12T23:19:56.629Z,12.82
2023-04-12T23:23:59.918Z,12.79
2023-04-12T23:28:03.511Z,12.80
2023-04-12T23:32:08.466Z,12.84
2023-04-12T23:36:12.742Z,12.90
2023-04-12T23:40:15.781Z,12.93
2023-04-12T23:44:19.554Z,13.00
2023-04-12T23:48:25.162Z,13.05
2023-04-12T23:52:28.767Z,13.07
2023-04-12T23:56:31.717Z,13.09
